createdAt,value
2022-09-28T00:00:59.175Z,20.09
2022-09-28T00:03:25.934Z,20.06
2022-09-28T00:05:52.504Z,20.07
2022-09-28T00:08:19.124Z,20.06
2022-09-28T00:10:54.320Z,20.06
2022-09-28T00:13:20.906Z,20.05
2022-09-28T00:15:47.457Z,20.03
2022-09-28T00:18:14.035Z,20.03
2022-09-28T00:20:40.727Z,20.03
2022-09-28T00:23:07.344Z,20.03
2022-09-28T00:25:34.024Z,20.01
2022-09-28T00:28:00.706Z,20.01
2022-09-28T00:30:27.307Z,19.99
2022-09-28T00:32:53.893Z,19.98
2022-09-28T00:35:20.495Z,19.97
2022-09-28T00:37:49.041Z,19.97
2022-09-28T00:40:15.819Z,19.95
2022-09-28T00:42:43.078Z,19.94
2022-09-28T00:45:10.134Z,19.94
2022-09-28T00:47:57.073Z,19.94
2022-09-28T00:50:29.046Z,19.94
2022-09-28T00:53:04.279Z,19.92
2022-09-28T00:55:34.595Z,19.92
2022-09-28T00:58:03.489Z,19.91
2022-09-28T01:00:30.200Z,19.91
2022-09-28T01:02:58.132Z,19.91
2022-09-28T01:05:24.804Z,19.89
2022-09-28T01:07:51.517Z,19.90
2022-09-28T01:10:18.466Z,19.89
2022-09-28T01:12:45.105Z,19.88
2022-09-28T01:15:11.948Z,19.87
2022-09-28T01:17:49.386Z,19.86
2022-09-28T01:20:15.940Z,19.86
2022-09-28T01:23:01.037Z,19.85
2022-09-28T01:25:34.400Z,19.84
2022-09-28T01:28:09.453Z,19.84
2022-09-28T01:30:42.145Z,19.83
2022-09-28T01:33:14.563Z,19.83
2022-09-28T01:35:47.883Z,19.81
2022-09-28T01:38:17.625Z,19.80
2022-09-28T01:40:45.320Z,19.81
2022-09-28T01:43:23.258Z,19.79
2022-09-28T01:45:53.279Z,19.78
2022-09-28T01:48:23.336Z,19.78
2022-09-28T01:50:53.856Z,19.78
2022-09-28T01:53:29.278Z,19.76
2022-09-28T01:55:59.096Z,19.76
2022-09-28T01:58:32.600Z,19.75
2022-09-28T02:01:05.363Z,19.75
2022-09-28T02:03:37.045Z,19.74
2022-09-28T02:06:11.852Z,19.73
2022-09-28T02:08:41.321Z,19.72
2022-09-28T02:11:15.169Z,19.71
2022-09-28T02:13:44.578Z,19.70
2022-09-28T02:16:11.143Z,19.70
2022-09-28T02:18:37.779Z,19.68
2022-09-28T02:21:11.434Z,19.67
2022-09-28T02:23:40.108Z,19.68
2022-09-28T02:26:09.300Z,19.67
2022-09-28T02:28:35.863Z,19.67
2022-09-28T02:31:02.643Z,19.65
2022-09-28T02:33:40.872Z,19.66
2022-09-28T02:36:07.695Z,19.65
2022-09-28T02:38:34.384Z,19.64
2022-09-28T02:41:07.612Z,19.63
2022-09-28T02:43:52.641Z,19.62
2022-09-28T02:46:37.866Z,19.61
2022-09-28T02:49:36.774Z,19.59
2022-09-28T02:52:21.972Z,19.60
2022-09-28T02:54:48.562Z,19.60
2022-09-28T02:57:30.459Z,19.59
2022-09-28T02:59:57.057Z,19.59
2022-09-28T03:02:36.061Z,19.57
2022-09-28T03:05:14.549Z,19.57
2022-09-28T03:07:41.664Z,19.56
2022-09-28T03:10:08.265Z,19.54
2022-09-28T03:12:35.045Z,19.54
2022-09-28T03:15:07.774Z,19.54
2022-09-28T03:17:34.344Z,19.52
2022-09-28T03:20:01.081Z,19.52
2022-09-28T03:22:27.679Z,19.52
2022-09-28T03:24:54.380Z,19.52
2022-09-28T03:27:20.999Z,19.52
2022-09-28T03:29:47.593Z,19.51
2022-09-28T03:32:14.167Z,19.51
2022-09-28T03:34:40.859Z,19.50
2022-09-28T03:37:07.491Z,19.50
2022-09-28T03:39:34.088Z,19.49
2022-09-28T03:42:01.039Z,19.49
2022-09-28T03:44:27.648Z,19.48
2022-09-28T03:46:54.471Z,19.48
2022-09-28T03:49:21.227Z,19.46
2022-09-28T03:51:47.911Z,19.46
2022-09-28T03:54:14.536Z,19.44
2022-09-28T03:56:41.391Z,19.44
2022-09-28T03:59:08.114Z,19.45
2022-09-28T04:01:34.871Z,19.45
2022-09-28T04:04:01.656Z,19.44
2022-09-28T04:06:28.299Z,19.45
2022-09-28T04:08:54.853Z,19.43
2022-09-28T04:11:21.560Z,19.43
2022-09-28T04:13:49.330Z,19.44
2022-09-28T04:16:16.445Z,19.44
2022-09-28T04:18:43.082Z,19.42
2022-09-28T04:21:13.186Z,19.40
2022-09-28T04:23:40.052Z,19.40
2022-09-28T04:26:07.817Z,19.41
2022-09-28T04:28:53.168Z,19.43
2022-09-28T04:31:21.779Z,19.49
2022-09-28T04:33:48.479Z,19.53
2022-09-28T04:36:15.144Z,19.55
2022-09-28T04:38:52.732Z,19.57
2022-09-28T04:41:20.360Z,19.61
2022-09-28T04:43:47.473Z,19.67
2022-09-28T04:46:14.859Z,19.72
2022-09-28T04:48:41.579Z,19.76
2022-09-28T04:51:08.367Z,19.80
2022-09-28T04:53:39.835Z,19.86
2022-09-28T04:56:07.986Z,19.91
2022-09-28T04:58:34.998Z,19.97
2022-09-28T05:01:04.124Z,20.01
2022-09-28T05:03:35.024Z,20.05
2022-09-28T05:06:02.047Z,20.13
2022-09-28T05:08:28.959Z,20.19
2022-09-28T05:11:00.042Z,20.23
2022-09-28T05:13:38.342Z,20.29
2022-09-28T05:16:05.675Z,20.35
2022-09-28T05:18:32.789Z,20.40
2022-09-28T05:20:59.389Z,20.45
2022-09-28T05:23:26.189Z,20.50
2022-09-28T05:25:52.863Z,20.55
2022-09-28T05:28:27.299Z,20.60
2022-09-28T05:30:58.438Z,20.66
2022-09-28T05:33:25.067Z,20.71
2022-09-28T05:35:55.109Z,20.74
2022-09-28T05:38:23.630Z,20.79
2022-09-28T05:40:50.287Z,20.82
2022-09-28T05:43:16.957Z,20.86
2022-09-28T05:45:43.644Z,20.90
2022-09-28T05:48:13.376Z,20.93
2022-09-28T05:50:40.163Z,20.96
2022-09-28T05:53:08.466Z,20.98
2022-09-28T05:55:35.906Z,21.02
2022-09-28T05:58:04.438Z,21.04
2022-09-28T06:00:31.850Z,21.07
2022-09-28T06:03:08.934Z,21.08
2022-09-28T06:05:36.531Z,21.10
2022-09-28T06:08:04.574Z,21.12
2022-09-28T06:10:31.524Z,21.13
2022-09-28T06:12:58.499Z,21.16
2022-09-28T06:15:27.544Z,21.15
2022-09-28T06:18:20.599Z,21.16
2022-09-28T06:20:47.199Z,21.21
2022-09-28T06:23:14.121Z,21.20
2022-09-28T06:25:40.855Z,21.19
2022-09-28T06:28:09.805Z,21.20
2022-09-28T06:30:38.722Z,21.18
2022-09-28T06:33:06.292Z,21.18
2022-09-28T06:35:35.062Z,21.17
2022-09-28T06:38:02.092Z,21.03
2022-09-28T06:40:35.540Z,20.72
2022-09-28T06:43:03.811Z,20.77
2022-09-28T06:45:31.039Z,20.80
2022-09-28T06:47:58.845Z,20.82
2022-09-28T06:50:26.710Z,20.85
2022-09-28T06:52:54.162Z,20.85
2022-09-28T06:55:21.485Z,20.86
2022-09-28T06:57:48.661Z,20.87
2022-09-28T07:00:15.560Z,20.88
2022-09-28T07:02:42.189Z,20.89
2022-09-28T07:05:12.717Z,20.92
2022-09-28T07:07:40.559Z,20.92
2022-09-28T07:10:07.423Z,20.95
2022-09-28T07:12:35.437Z,20.97
2022-09-28T07:15:02.477Z,21.04
2022-09-28T07:17:29.297Z,21.08
2022-09-28T07:20:00.763Z,21.09
2022-09-28T07:22:41.872Z,21.12
2022-09-28T07:25:09.899Z,21.15
2022-09-28T07:27:37.426Z,21.14
2022-09-28T07:30:05.673Z,21.14
2022-09-28T07:32:35.204Z,21.15
2022-09-28T07:35:03.028Z,21.16
2022-09-28T07:37:29.643Z,21.15
2022-09-28T07:40:16.559Z,21.16
2022-09-28T07:42:43.176Z,21.16
2022-09-28T07:45:09.989Z,21.16
2022-09-28T07:47:36.597Z,21.14
2022-09-28T07:50:03.340Z,21.14
2022-09-28T07:52:29.931Z,21.14
2022-09-28T07:54:56.493Z,21.14
2022-09-28T07:57:23.500Z,21.12
2022-09-28T07:59:50.532Z,21.10
2022-09-28T08:02:20.409Z,21.10
2022-09-28T08:04:58.909Z,21.09
2022-09-28T08:07:25.860Z,21.09
2022-09-28T08:09:52.470Z,21.08
2022-09-28T08:12:19.905Z,21.08
2022-09-28T08:14:46.878Z,21.09
2022-09-28T08:17:13.831Z,21.05
2022-09-28T08:19:58.817Z,21.05
2022-09-28T08:22:25.574Z,21.05
2022-09-28T08:24:52.175Z,21.04
2022-09-28T08:27:18.893Z,21.03
2022-09-28T08:29:45.516Z,21.03
2022-09-28T08:32:12.149Z,21.03
2022-09-28T08:34:39.812Z,21.01
2022-09-28T08:37:29.282Z,21.01
2022-09-28T08:39:56.217Z,21.03
2022-09-28T08:42:23.200Z,21.01
2022-09-28T08:44:58.037Z,20.99
2022-09-28T08:47:46.503Z,20.98
2022-09-28T08:50:17.888Z,20.95
2022-09-28T08:52:48.410Z,20.95
2022-09-28T08:55:17.598Z,20.93
2022-09-28T08:57:50.969Z,20.92
2022-09-28T09:00:21.201Z,20.90
2022-09-28T09:02:48.271Z,20.90
2022-09-28T09:05:20.175Z,20.86
2022-09-28T09:07:46.768Z,20.86
2022-09-28T09:10:21.064Z,20.85
2022-09-28T09:15:50.916Z,20.82
2022-09-28T09:18:22.569Z,20.82
2022-09-28T09:21:00.790Z,20.81
2022-09-28T09:23:46.547Z,20.80
2022-09-28T09:26:15.415Z,20.79
2022-09-28T09:29:02.169Z,20.79
2022-09-28T09:31:44.978Z,20.77
2022-09-28T09:34:20.955Z,20.77
2022-09-28T09:37:24.679Z,20.75
2022-09-28T09:40:03.310Z,20.76
2022-09-28T09:42:50.449Z,20.75
2022-09-28T09:45:26.171Z,20.82
2022-09-28T09:48:00.759Z,20.82
2022-09-28T09:50:33.680Z,20.85
2022-09-28T09:53:09.764Z,20.88
2022-09-28T09:55:40.839Z,20.88
2022-09-28T09:58:13.442Z,20.92
2022-09-28T10:00:44.589Z,20.95
2022-09-28T10:03:19.581Z,20.96
2022-09-28T10:05:49.119Z,20.99
2022-09-28T10:08:17.955Z,21.03
2022-09-28T10:10:49.273Z,21.03
2022-09-28T10:13:15.838Z,21.06
2022-09-28T10:15:43.547Z,21.09
2022-09-28T10:18:12.152Z,21.11
2022-09-28T10:20:39.976Z,21.13
2022-09-28T10:23:14.593Z,21.16
2022-09-28T10:25:43.418Z,21.15
2022-09-28T10:28:12.263Z,21.16
2022-09-28T10:30:44.453Z,21.15
2022-09-28T10:33:32.613Z,21.14
2022-09-28T10:36:05.200Z,21.16
2022-09-28T10:38:32.957Z,21.16
2022-09-28T10:41:00.947Z,21.23
2022-09-28T10:43:49.608Z,21.25
2022-09-28T10:46:23.931Z,21.23
2022-09-28T10:48:52.914Z,21.23
2022-09-28T10:51:19.593Z,21.22
2022-09-28T10:54:02.199Z,21.21
2022-09-28T10:56:30.416Z,21.23
2022-09-28T10:58:58.182Z,21.22
2022-09-28T11:01:29.201Z,21.24
2022-09-28T11:03:57.136Z,21.24
2022-09-28T11:06:36.263Z,21.21
2022-09-28T11:09:04.714Z,21.21
2022-09-28T11:11:39.621Z,21.20
2022-09-28T11:14:18.206Z,21.21
2022-09-28T11:16:44.812Z,21.23
2022-09-28T11:19:38.339Z,21.22
2022-09-28T11:22:20.440Z,21.17
2022-09-28T11:24:53.431Z,21.15
2022-09-28T11:27:22.180Z,21.18
2022-09-28T11:29:57.207Z,21.15
2022-09-28T11:32:29.319Z,21.13
2022-09-28T11:34:59.932Z,21.12
2022-09-28T11:37:32.998Z,21.13
2022-09-28T11:40:15.820Z,21.13
2022-09-28T11:42:48.824Z,21.14
2022-09-28T11:45:15.353Z,21.17
2022-09-28T11:48:00.796Z,21.16
2022-09-28T11:50:33.529Z,21.12
2022-09-28T11:53:12.254Z,21.10
2022-09-28T11:55:42.612Z,21.08
2022-09-28T11:58:15.267Z,21.07
2022-09-28T12:00:48.310Z,21.06
2022-09-28T12:03:18.618Z,21.05
2022-09-28T12:05:56.184Z,21.03
2022-09-28T12:08:25.750Z,21.02
2022-09-28T12:11:02.496Z,21.04
2022-09-28T12:13:48.827Z,21.04
2022-09-28T12:16:53.176Z,21.04
2022-09-28T12:19:14.018Z,21.01
2022-09-28T12:21:43.598Z,21.00
2022-09-28T12:24:10.148Z,20.98
2022-09-28T12:26:44.163Z,20.97
2022-09-28T12:29:13.881Z,20.94
2022-09-28T12:31:52.814Z,20.92
2022-09-28T12:34:19.575Z,20.90
2022-09-28T12:36:58.673Z,20.88
2022-09-28T12:39:46.917Z,20.87
2022-09-28T12:42:27.873Z,20.85
2022-09-28T12:44:59.385Z,20.84
2022-09-28T12:47:26.438Z,20.82
2022-09-28T12:50:37.692Z,20.81
2022-09-28T12:53:14.171Z,20.79
2022-09-28T12:55:46.515Z,20.78
2022-09-28T12:58:21.236Z,20.78
2022-09-28T13:01:00.808Z,20.79
2022-09-28T13:03:44.517Z,20.75
2022-09-28T13:06:11.243Z,20.74
2022-09-28T13:08:55.874Z,20.73
2022-09-28T13:11:32.052Z,20.73
2022-09-28T13:14:25.080Z,20.74
2022-09-28T13:16:58.379Z,20.76
2022-09-28T13:19:29.837Z,20.81
2022-09-28T13:22:05.550Z,20.84
2022-09-28T13:24:37.130Z,20.90
2022-09-28T13:27:06.647Z,20.97
2022-09-28T13:29:35.141Z,20.99
2022-09-28T13:32:03.741Z,21.02
2022-09-28T13:34:33.533Z,21.07
2022-09-28T13:37:29.875Z,21.07
2022-09-28T13:40:00.234Z,21.12
2022-09-28T13:42:32.728Z,21.13
2022-09-28T13:45:17.958Z,21.14
2022-09-28T13:47:47.695Z,21.15
2022-09-28T13:50:28.998Z,21.17
2022-09-28T13:53:24.045Z,21.20
2022-09-28T13:56:20.387Z,21.22
2022-09-28T13:59:09.355Z,21.24
2022-09-28T14:01:40.731Z,21.27
2022-09-28T14:04:11.259Z,21.24
2022-09-28T14:06:45.697Z,21.24
2022-09-28T14:09:16.361Z,21.25
2022-09-28T14:11:44.944Z,21.24
2022-09-28T14:14:14.242Z,21.21
2022-09-28T14:16:42.464Z,21.22
2022-09-28T14:19:14.359Z,21.24
2022-09-28T14:21:44.721Z,21.24
2022-09-28T14:24:19.392Z,21.21
2022-09-28T14:26:47.956Z,21.24
2022-09-28T14:29:18.075Z,21.28
2022-09-28T14:31:45.809Z,21.25
2022-09-28T14:34:16.218Z,21.21
2022-09-28T14:36:51.678Z,21.22
2022-09-28T14:39:25.204Z,21.23
2022-09-28T14:41:52.913Z,21.24
2022-09-28T14:44:20.139Z,21.24
2022-09-28T14:46:48.034Z,21.25
2022-09-28T14:49:18.226Z,21.24
2022-09-28T14:51:48.491Z,21.25
2022-09-28T14:54:19.961Z,21.24
2022-09-28T14:56:50.842Z,21.24
2022-09-28T14:59:19.671Z,21.23
2022-09-28T15:01:51.189Z,21.22
2022-09-28T15:04:19.599Z,21.21
2022-09-28T15:06:48.405Z,21.20
2022-09-28T15:09:21.445Z,21.18
2022-09-28T15:11:49.187Z,21.18
2022-09-28T15:14:18.852Z,21.18
2022-09-28T15:16:51.345Z,21.18
2022-09-28T15:19:20.974Z,21.16
2022-09-28T15:21:50.142Z,21.15
2022-09-28T15:24:20.340Z,21.16
2022-09-28T15:26:48.742Z,21.13
2022-09-28T15:29:18.371Z,21.13
2022-09-28T15:31:45.523Z,21.12
2022-09-28T15:34:30.073Z,21.11
2022-09-28T15:36:57.337Z,21.09
2022-09-28T15:39:29.288Z,21.10
2022-09-28T15:41:57.062Z,21.08
2022-09-28T15:44:30.293Z,21.08
2022-09-28T15:47:07.011Z,21.06
2022-09-28T15:49:39.115Z,21.05
2022-09-28T15:52:06.703Z,21.04
2022-09-28T15:54:39.606Z,21.04
2022-09-28T15:57:06.941Z,21.02
2022-09-28T15:59:37.570Z,21.02
2022-09-28T16:02:08.446Z,21.01
2022-09-28T16:04:38.602Z,20.98
2022-09-28T16:07:07.274Z,20.98
2022-09-28T16:09:40.902Z,20.97
2022-09-28T16:12:10.041Z,20.96
2022-09-28T16:14:37.348Z,20.96
2022-09-28T16:17:05.934Z,20.94
2022-09-28T16:19:37.442Z,20.96
2022-09-28T16:22:06.924Z,20.95
2022-09-28T16:24:35.373Z,20.95
2022-09-28T16:27:05.449Z,20.94
2022-09-28T16:29:39.534Z,20.94
2022-09-28T16:32:09.706Z,20.92
2022-09-28T16:34:36.842Z,20.94
2022-09-28T16:37:05.065Z,20.92
2022-09-28T16:39:32.584Z,20.90
2022-09-28T16:42:13.994Z,20.90
2022-09-28T16:44:40.653Z,20.87
2022-09-28T16:47:10.797Z,20.86
2022-09-28T16:49:40.652Z,20.84
2022-09-28T16:52:12.863Z,20.83
2022-09-28T16:54:58.686Z,20.80
2022-09-28T16:57:25.891Z,20.78
2022-09-28T17:02:46.954Z,20.76
2022-09-28T17:05:15.952Z,20.73
2022-09-28T17:07:48.923Z,20.73
2022-09-28T17:10:24.471Z,20.72
2022-09-28T17:12:51.967Z,20.70
2022-09-28T17:15:20.037Z,20.69
2022-09-28T17:17:47.642Z,20.67
2022-09-28T17:20:22.278Z,20.65
2022-09-28T17:22:49.916Z,20.65
2022-09-28T17:25:17.317Z,20.63
2022-09-28T17:27:45.890Z,20.62
2022-09-28T17:30:13.490Z,20.61
2022-09-28T17:32:45.026Z,20.60
2022-09-28T17:35:24.281Z,20.59
2022-09-28T17:37:51.805Z,20.57
2022-09-28T17:40:22.848Z,20.55
2022-09-28T17:42:49.633Z,20.54
2022-09-28T17:45:16.461Z,20.53
2022-09-28T17:47:43.978Z,20.52
2022-09-28T17:50:24.153Z,20.50
2022-09-28T17:52:55.002Z,20.50
2022-09-28T17:55:23.355Z,20.48
2022-09-28T17:57:50.354Z,20.47
2022-09-28T18:00:17.886Z,20.45
2022-09-28T18:02:45.214Z,20.45
2022-09-28T18:05:14.782Z,20.42
2022-09-28T18:07:47.424Z,20.41
2022-09-28T18:10:15.708Z,20.41
2022-09-28T18:12:43.413Z,20.39
2022-09-28T18:15:10.701Z,20.38
2022-09-28T18:17:37.627Z,20.37
2022-09-28T18:20:05.374Z,20.36
2022-09-28T18:22:32.194Z,20.37
2022-09-28T18:24:59.207Z,20.37
2022-09-28T18:27:28.536Z,20.38
2022-09-28T18:29:55.084Z,20.41
2022-09-28T18:32:21.822Z,20.45
2022-09-28T18:34:59.525Z,20.49
2022-09-28T18:37:26.222Z,20.52
2022-09-28T18:39:52.948Z,20.53
2022-09-28T18:42:20.783Z,20.59
2022-09-28T18:44:47.583Z,20.65
2022-09-28T18:47:15.309Z,20.70
2022-09-28T18:49:45.990Z,20.74
2022-09-28T18:52:13.409Z,20.77
2022-09-28T18:54:40.454Z,20.81
2022-09-28T18:57:07.064Z,20.86
2022-09-28T18:59:33.774Z,20.90
2022-09-28T19:02:01.783Z,20.93
2022-09-28T19:04:28.557Z,20.98
2022-09-28T19:06:55.571Z,21.02
2022-09-28T19:09:22.908Z,21.06
2022-09-28T19:11:49.708Z,21.10
2022-09-28T19:14:16.370Z,21.14
2022-09-28T19:16:44.060Z,21.16
2022-09-28T19:19:12.767Z,21.19
2022-09-28T19:21:40.387Z,21.21
2022-09-28T19:24:07.131Z,21.26
2022-09-28T19:26:33.868Z,21.28
2022-09-28T19:29:00.507Z,21.31
2022-09-28T19:31:27.420Z,21.36
2022-09-28T19:33:54.040Z,21.37
2022-09-28T19:36:23.421Z,21.40
2022-09-28T19:38:50.585Z,21.41
2022-09-28T19:41:39.589Z,21.41
2022-09-28T19:44:10.171Z,21.40
2022-09-28T19:46:38.520Z,21.40
2022-09-28T19:49:06.485Z,21.38
2022-09-28T19:51:33.550Z,21.37
2022-09-28T19:54:04.623Z,21.38
2022-09-28T19:56:32.094Z,21.39
2022-09-28T19:59:02.389Z,21.40
2022-09-28T20:01:29.918Z,21.46
2022-09-28T20:03:57.146Z,21.49
2022-09-28T20:06:24.540Z,21.52
2022-09-28T20:08:51.537Z,21.55
2022-09-28T20:11:18.641Z,21.56
2022-09-28T20:13:45.346Z,21.60
2022-09-28T20:16:14.520Z,21.62
2022-09-28T20:18:44.119Z,21.64
2022-09-28T20:21:14.119Z,21.68
2022-09-28T20:23:44.784Z,21.70
2022-09-28T20:26:11.795Z,21.74
2022-09-28T20:28:38.814Z,21.79
2022-09-28T20:31:06.654Z,21.80
2022-09-28T20:33:48.655Z,21.82
2022-09-28T20:36:16.881Z,21.85
2022-09-28T20:38:44.025Z,21.85
2022-09-28T20:41:11.749Z,21.84
2022-09-28T20:43:42.191Z,21.83
2022-09-28T20:46:10.530Z,21.82
2022-09-28T20:48:37.424Z,21.81
2022-09-28T20:51:05.329Z,21.80
2022-09-28T20:53:42.994Z,21.80
2022-09-28T20:56:14.097Z,21.79
2022-09-28T20:58:41.150Z,21.79
2022-09-28T21:01:12.611Z,21.79
2022-09-28T21:03:42.935Z,21.79
2022-09-28T21:06:12.290Z,21.79
2022-09-28T21:08:39.074Z,21.80
2022-09-28T21:11:07.354Z,21.79
2022-09-28T21:13:45.135Z,21.79
2022-09-28T21:16:12.634Z,21.78
2022-09-28T21:18:39.527Z,21.78
2022-09-28T21:21:07.390Z,21.78
2022-09-28T21:23:49.047Z,21.77
2022-09-28T21:26:19.080Z,21.74
2022-09-28T21:28:46.224Z,21.72
2022-09-28T21:31:13.076Z,21.72
2022-09-28T21:33:43.920Z,21.72
2022-09-28T21:36:10.556Z,21.74
2022-09-28T21:38:37.223Z,21.72
2022-09-28T21:41:03.946Z,21.69
2022-09-28T21:43:42.471Z,21.71
2022-09-28T21:46:09.847Z,21.70
2022-09-28T21:48:36.513Z,21.68
2022-09-28T21:51:04.564Z,21.67
2022-09-28T21:53:42.922Z,21.66
2022-09-28T21:56:10.699Z,21.64
2022-09-28T21:58:37.627Z,21.64
2022-09-28T22:01:04.231Z,21.63
2022-09-28T22:03:39.325Z,21.61
2022-09-28T22:06:06.682Z,21.59
2022-09-28T22:08:33.671Z,21.58
2022-09-28T22:11:01.813Z,21.59
2022-09-28T22:13:28.996Z,21.55
2022-09-28T22:15:56.022Z,21.55
2022-09-28T22:18:22.646Z,21.52
2022-09-28T22:20:49.341Z,21.52
2022-09-28T22:23:15.998Z,21.52
2022-09-28T22:25:42.589Z,21.52
2022-09-28T22:28:09.167Z,21.54
2022-09-28T22:30:35.786Z,21.56
2022-09-28T22:33:02.915Z,21.58
2022-09-28T22:35:29.583Z,21.61
2022-09-28T22:37:56.153Z,21.61
2022-09-28T22:40:24.254Z,21.64
2022-09-28T22:42:50.852Z,21.66
2022-09-28T22:45:17.486Z,21.71
2022-09-28T22:47:44.868Z,21.54
2022-09-28T22:50:11.557Z,21.48
2022-09-28T22:52:38.155Z,21.52
2022-09-28T22:55:05.113Z,21.54
2022-09-28T22:57:31.772Z,21.56
2022-09-28T22:59:58.350Z,21.58
2022-09-28T23:02:24.949Z,21.58
2022-09-28T23:04:51.585Z,21.60
2022-09-28T23:07:18.897Z,21.61
2022-09-28T23:09:46.094Z,21.61
2022-09-28T23:12:14.215Z,21.62
2022-09-28T23:14:41.152Z,21.63
2022-09-28T23:17:07.942Z,21.63
2022-09-28T23:19:34.584Z,21.64
2022-09-28T23:22:01.448Z,21.65
2022-09-28T23:24:28.145Z,21.66
2022-09-28T23:26:54.743Z,21.65
2022-09-28T23:29:21.664Z,21.66
2022-09-28T23:31:48.469Z,21.67
2022-09-28T23:34:15.128Z,21.67
2022-09-28T23:36:43.980Z,21.67
2022-09-28T23:39:12.094Z,21.67
2022-09-28T23:41:40.049Z,21.66
2022-09-28T23:44:06.860Z,21.66
2022-09-28T23:46:35.389Z,21.66
2022-09-28T23:49:02.206Z,21.68
2022-09-28T23:51:28.855Z,21.66
2022-09-28T23:53:55.502Z,21.64
2022-09-28T23:56:22.109Z,21.68
2022-09-28T23:58:48.725Z,21.66
